createdAt,value
2023-04-02T00:00:21.570Z,1.40
2023-04-02T00:02:57.544Z,1.13
2023-04-02T00:06:01.132Z,1.20
2023-04-02T00:08:38.906Z,1.70
2023-04-02T00:11:09.039Z,1.80
2023-04-02T00:13:41.996Z,1.80
2023-04-02T00:16:14.293Z,2.15
2023-04-02T00:18:46.444Z,2.20
2023-04-02T00:21:22.133Z,2.20
2023-04-02T00:23:50.465Z,2.40
2023-04-02T00:26:32.415Z,2.55
2023-04-02T00:29:03.530Z,2.75
2023-04-02T00:31:32.839Z,1.80
2023-04-02T00:34:02.292Z,1.80
2023-04-02T00:36:33.969Z,1.90
2023-04-02T00:39:05.816Z,2.20
2023-04-02T00:41:35.996Z,1.98
2023-04-02T00:44:06.820Z,1.27
2023-04-02T00:46:46.653Z,1.60
2023-04-02T00:49:22.701Z,1.70
2023-04-02T00:51:54.633Z,1.17
2023-04-02T00:54:26.694Z,1.20
2023-04-02T00:56:56.967Z,1.27
2023-04-02T00:59:29.855Z,1.10
2023-04-02T01:02:02.670Z,1.00
2023-04-02T01:04:34.546Z,1.10
2023-04-02T01:07:06.441Z,1.15
2023-04-02T01:09:54.667Z,0.98
2023-04-02T01:12:36.546Z,1.00
2023-04-02T01:15:12.112Z,0.80
2023-04-02T01:17:54.359Z,1.08
2023-04-02T01:20:49.016Z,1.10
2023-04-02T01:23:21.762Z,0.95
2023-04-02T01:25:54.598Z,1.35
2023-04-02T01:28:29.468Z,1.10
2023-04-02T01:31:02.133Z,1.20
2023-04-02T01:33:33.361Z,1.00
2023-04-02T01:36:07.819Z,1.27
2023-04-02T01:38:42.541Z,1.30
2023-04-02T01:41:22.035Z,1.10
2023-04-02T01:43:58.138Z,1.02
2023-04-02T01:46:29.454Z,1.30
2023-04-02T01:48:58.423Z,1.20
2023-04-02T01:51:31.733Z,1.30
2023-04-02T01:54:01.874Z,1.20
2023-04-02T01:56:34.745Z,1.08
2023-04-02T01:59:04.048Z,1.20
2023-04-02T02:01:38.552Z,1.30
2023-04-02T02:04:17.131Z,1.42
2023-04-02T02:06:46.288Z,1.50
2023-04-02T02:09:24.745Z,1.35
2023-04-02T02:11:53.253Z,1.35
2023-04-02T02:14:36.676Z,1.38
2023-04-02T02:17:13.329Z,1.38
2023-04-02T02:19:45.203Z,1.55
2023-04-02T02:22:27.435Z,1.00
2023-04-02T02:24:56.800Z,1.55
2023-04-02T02:27:46.313Z,1.40
2023-04-02T02:30:17.503Z,1.33
2023-04-02T02:32:57.710Z,1.20
2023-04-02T02:35:30.007Z,1.30
2023-04-02T02:38:03.886Z,1.40
2023-04-02T02:40:38.011Z,1.30
2023-04-02T02:43:10.290Z,1.35
2023-04-02T02:45:41.186Z,1.40
2023-04-02T02:48:15.388Z,1.33
2023-04-02T02:50:44.773Z,1.20
2023-04-02T02:53:18.917Z,1.75
2023-04-02T02:55:48.709Z,1.40
2023-04-02T02:58:22.958Z,1.50
2023-04-02T03:00:51.330Z,1.50
2023-04-02T03:03:24.435Z,1.40
2023-04-02T03:05:55.639Z,1.60
2023-04-02T03:08:28.429Z,1.35
2023-04-02T03:11:01.536Z,1.40
2023-04-02T03:13:35.508Z,2.05
2023-04-02T03:16:11.285Z,1.48
2023-04-02T03:18:46.460Z,1.50
2023-04-02T03:21:28.236Z,1.45
2023-04-02T03:24:14.149Z,1.53
2023-04-02T03:26:56.175Z,1.60
2023-04-02T03:29:27.326Z,1.90
2023-04-02T03:31:59.163Z,1.52
2023-04-02T03:34:34.436Z,1.80
2023-04-02T03:37:09.223Z,1.55
2023-04-02T03:39:41.812Z,1.48
2023-04-02T03:42:21.353Z,1.77
2023-04-02T03:44:55.967Z,1.50
2023-04-02T03:47:33.004Z,1.70
2023-04-02T03:50:10.939Z,1.48
2023-04-02T03:52:42.298Z,1.90
2023-04-02T03:55:23.397Z,1.80
2023-04-02T03:58:00.871Z,1.60
2023-04-02T04:00:35.546Z,1.70
2023-04-02T04:03:11.530Z,1.63
2023-04-02T04:05:48.959Z,1.60
2023-04-02T04:08:20.917Z,1.90
2023-04-02T04:10:53.632Z,1.73
2023-04-02T04:13:32.877Z,1.50
2023-04-02T04:19:03.122Z,1.42
2023-04-02T04:21:48.684Z,1.58
2023-04-02T04:24:21.945Z,1.50
2023-04-02T04:26:56.263Z,1.42
2023-04-02T04:29:40.815Z,1.88
2023-04-02T04:32:19.491Z,1.67
2023-04-02T04:34:53.581Z,1.73
2023-04-02T04:37:29.189Z,1.50
2023-04-02T04:40:02.005Z,1.50
2023-04-02T04:42:46.160Z,1.80
2023-04-02T04:45:30.145Z,1.50
2023-04-02T04:48:08.062Z,1.70
2023-04-02T04:50:42.334Z,1.50
2023-04-02T04:53:23.021Z,1.98
2023-04-02T04:55:54.134Z,1.60
2023-04-02T04:58:29.624Z,2.00
2023-04-02T05:01:06.934Z,2.00
2023-04-02T05:03:53.600Z,1.50
2023-04-02T05:06:34.409Z,1.70
2023-04-02T05:09:16.302Z,1.48
2023-04-02T05:11:48.293Z,1.83
2023-04-02T05:14:24.783Z,1.63
2023-04-02T05:16:59.784Z,1.30
2023-04-02T05:19:33.902Z,1.90
2023-04-02T05:22:13.531Z,1.65
2023-04-02T05:24:50.902Z,1.45
2023-04-02T05:27:38.944Z,1.25
2023-04-02T05:30:16.052Z,1.83
2023-04-02T05:32:49.540Z,1.85
2023-04-02T05:35:20.621Z,1.67
2023-04-02T05:37:50.048Z,1.50
2023-04-02T05:40:33.934Z,1.80
2023-04-02T05:43:25.159Z,1.33
2023-04-02T05:45:55.965Z,1.40
2023-04-02T05:48:29.030Z,1.65
2023-04-02T05:51:02.260Z,1.50
2023-04-02T05:53:34.571Z,1.60
2023-04-02T05:56:11.943Z,1.38
2023-04-02T05:58:46.289Z,1.55
2023-04-02T06:01:33.562Z,1.52
2023-04-02T06:04:08.452Z,1.70
2023-04-02T06:06:56.641Z,1.60
2023-04-02T06:09:32.918Z,1.50
2023-04-02T06:12:14.888Z,1.40
2023-04-02T06:14:43.011Z,1.50
2023-04-02T06:17:18.944Z,1.50
2023-04-02T06:19:49.090Z,1.40
2023-04-02T06:22:25.284Z,1.35
2023-04-02T06:25:04.971Z,1.40
2023-04-02T06:27:36.527Z,1.80
2023-04-02T06:30:08.372Z,1.60
2023-04-02T06:32:36.431Z,1.90
2023-04-02T06:35:04.463Z,1.65
2023-04-02T06:37:35.822Z,1.80
2023-04-02T06:40:06.877Z,1.52
2023-04-02T06:42:38.881Z,1.48
2023-04-02T06:45:15.150Z,1.45
2023-04-02T06:47:47.262Z,1.67
2023-04-02T06:50:20.028Z,1.50
2023-04-02T06:52:52.025Z,1.45
2023-04-02T06:55:31.348Z,1.77
2023-04-02T06:58:00.822Z,1.65
2023-04-02T07:00:35.893Z,1.95
2023-04-02T07:03:07.092Z,1.30
2023-04-02T07:05:35.367Z,1.52
2023-04-02T07:08:03.475Z,1.63
2023-04-02T07:10:31.542Z,2.05
2023-04-02T07:13:02.481Z,1.92
2023-04-02T07:15:30.952Z,1.92
2023-04-02T07:18:00.486Z,1.77
2023-04-02T07:20:30.915Z,2.10
2023-04-02T07:22:58.961Z,1.42
2023-04-02T07:25:27.958Z,1.60
2023-04-02T07:27:56.878Z,1.75
2023-04-02T07:30:26.301Z,1.65
2023-04-02T07:32:54.559Z,1.88
2023-04-02T07:35:22.819Z,2.08
2023-04-02T07:37:52.755Z,1.90
2023-04-02T07:40:24.239Z,1.70
2023-04-02T07:42:52.704Z,1.85
2023-04-02T07:45:20.945Z,1.95
2023-04-02T07:47:50.253Z,2.00
2023-04-02T07:50:18.886Z,1.65
2023-04-02T07:52:47.074Z,2.15
2023-04-02T07:55:16.884Z,1.92
2023-04-02T07:57:51.002Z,1.67
2023-04-02T08:00:20.664Z,1.60
2023-04-02T08:02:50.553Z,2.00
2023-04-02T08:05:19.471Z,1.88
2023-04-02T08:07:55.363Z,1.50
2023-04-02T08:10:23.778Z,1.50
2023-04-02T08:12:51.829Z,1.60
2023-04-02T08:15:19.981Z,1.70
2023-04-02T08:17:48.383Z,1.52
2023-04-02T08:20:19.267Z,1.63
2023-04-02T08:22:47.947Z,2.00
2023-04-02T08:25:16.751Z,2.03
2023-04-02T08:27:47.412Z,1.83
2023-04-02T08:30:16.230Z,2.38
2023-04-02T08:32:44.527Z,2.05
2023-04-02T08:35:14.887Z,1.80
2023-04-02T08:37:55.376Z,2.10
2023-04-02T08:40:27.961Z,2.60
2023-04-02T08:45:48.536Z,2.40
2023-04-02T08:48:17.335Z,1.98
2023-04-02T08:50:46.327Z,2.30
2023-04-02T08:53:20.805Z,2.00
2023-04-02T08:55:59.872Z,2.55
2023-04-02T08:58:39.622Z,2.13
2023-04-02T09:01:11.362Z,2.95
2023-04-02T09:03:43.710Z,2.30
2023-04-02T09:06:16.412Z,2.15
2023-04-02T09:08:48.644Z,1.88
2023-04-02T09:11:23.771Z,2.60
2023-04-02T09:13:57.021Z,2.40
2023-04-02T09:16:43.482Z,2.95
2023-04-02T09:19:18.417Z,2.70
2023-04-02T09:21:56.933Z,2.28
2023-04-02T09:24:26.208Z,2.63
2023-04-02T09:26:54.119Z,2.20
2023-04-02T09:29:45.218Z,2.13
2023-04-02T09:32:25.156Z,2.40
2023-04-02T09:35:22.467Z,2.75
2023-04-02T09:38:20.613Z,2.20
2023-04-02T09:40:52.465Z,2.63
2023-04-02T09:43:22.615Z,2.63
2023-04-02T09:46:02.858Z,2.60
2023-04-02T09:48:33.867Z,2.70
2023-04-02T09:51:08.118Z,2.65
2023-04-02T09:53:39.096Z,3.03
2023-04-02T09:56:13.026Z,2.90
2023-04-02T10:01:27.620Z,3.28
2023-04-02T10:03:56.300Z,3.25
2023-04-02T10:06:24.379Z,4.10
2023-04-02T10:08:52.579Z,2.78
2023-04-02T10:11:36.463Z,1.85
2023-04-02T10:14:19.470Z,1.45
2023-04-02T10:16:51.184Z,1.85
2023-04-02T10:19:28.911Z,1.85
2023-04-02T10:21:58.458Z,2.20
2023-04-02T10:24:29.288Z,2.10
2023-04-02T10:27:09.625Z,2.05
2023-04-02T10:30:02.375Z,2.03
2023-04-02T10:32:36.999Z,2.03
2023-04-02T10:35:12.015Z,2.15
2023-04-02T10:37:58.878Z,2.03
2023-04-02T10:40:30.044Z,1.67
2023-04-02T10:43:27.615Z,1.40
2023-04-02T10:46:01.745Z,1.70
2023-04-02T10:48:36.026Z,1.60
2023-04-02T10:51:08.654Z,1.95
2023-04-02T10:53:44.499Z,1.92
2023-04-02T10:56:14.309Z,1.65
2023-04-02T10:58:53.504Z,1.67
2023-04-02T11:01:26.226Z,1.60
2023-04-02T11:03:59.924Z,1.77
2023-04-02T11:06:32.314Z,2.40
2023-04-02T11:09:04.913Z,2.20
2023-04-02T11:11:38.934Z,2.10
2023-04-02T11:14:15.056Z,2.22
2023-04-02T11:16:44.777Z,2.10
2023-04-02T11:19:29.064Z,2.00
2023-04-02T11:22:00.975Z,1.80
2023-04-02T11:24:39.660Z,2.10
2023-04-02T11:27:16.160Z,1.80
2023-04-02T11:29:46.804Z,2.40
2023-04-02T11:32:29.817Z,2.22
2023-04-02T11:35:24.878Z,2.33
2023-04-02T11:37:54.327Z,1.98
2023-04-02T11:40:49.688Z,2.13
2023-04-02T11:43:49.850Z,1.98
2023-04-02T11:46:41.975Z,2.17
2023-04-02T11:49:41.873Z,1.60
2023-04-02T11:52:26.626Z,1.60
2023-04-02T11:55:00.372Z,1.67
2023-04-02T11:57:50.877Z,1.70
2023-04-02T12:00:34.745Z,2.22
2023-04-02T12:03:28.371Z,1.70
2023-04-02T12:06:03.733Z,1.73
2023-04-02T12:08:57.195Z,1.70
2023-04-02T12:11:33.661Z,1.75
2023-04-02T12:14:02.517Z,1.50
2023-04-02T12:16:34.602Z,2.00
2023-04-02T12:19:09.138Z,1.95
2023-04-02T12:21:38.657Z,1.70
2023-04-02T12:24:07.683Z,1.50
2023-04-02T12:26:38.384Z,1.52
2023-04-02T12:29:26.535Z,1.27
2023-04-02T12:31:56.698Z,1.30
2023-04-02T12:34:27.417Z,1.52
2023-04-02T12:36:57.628Z,1.35
2023-04-02T12:39:28.107Z,1.13
2023-04-02T12:41:57.291Z,1.70
2023-04-02T12:44:27.135Z,1.45
2023-04-02T12:46:56.335Z,1.40
2023-04-02T12:49:36.871Z,1.30
2023-04-02T12:52:07.085Z,2.03
2023-04-02T12:54:39.069Z,1.02
2023-04-02T12:57:34.244Z,1.20
2023-04-02T13:00:06.387Z,1.30
2023-04-02T13:02:45.980Z,1.52
2023-04-02T13:05:32.490Z,1.60
2023-04-02T13:08:00.552Z,1.50
2023-04-02T13:10:28.989Z,1.50
2023-04-02T13:12:58.045Z,1.42
2023-04-02T13:15:28.762Z,1.50
2023-04-02T13:18:18.261Z,1.40
2023-04-02T13:20:58.190Z,1.45
2023-04-02T13:23:33.675Z,1.73
2023-04-02T13:26:03.870Z,1.77
2023-04-02T13:28:31.700Z,1.60
2023-04-02T13:30:59.634Z,1.60
2023-04-02T13:33:27.590Z,1.80
2023-04-02T13:35:56.930Z,1.80
2023-04-02T13:38:24.894Z,1.50
2023-04-02T13:40:52.830Z,1.98
2023-04-02T13:43:21.583Z,2.13
2023-04-02T13:45:52.548Z,1.90
2023-04-02T13:48:24.386Z,1.67
2023-04-02T13:50:53.273Z,1.50
2023-04-02T13:53:29.062Z,1.70
2023-04-02T13:55:57.199Z,1.60
2023-04-02T13:58:25.109Z,2.10
2023-04-02T14:00:53.086Z,2.50
2023-04-02T14:03:23.141Z,1.48
2023-04-02T14:05:59.742Z,2.05
2023-04-02T14:08:40.895Z,1.92
2023-04-02T14:11:24.846Z,1.77
2023-04-02T14:14:13.646Z,1.75
2023-04-02T14:16:55.626Z,1.80
2023-04-02T14:19:38.867Z,1.83
2023-04-02T14:22:20.800Z,1.75
2023-04-02T14:24:58.796Z,2.47
2023-04-02T14:27:40.336Z,1.80
2023-04-02T14:30:16.522Z,2.00
2023-04-02T14:32:52.440Z,1.55
2023-04-02T14:35:26.388Z,1.63
2023-04-02T14:38:04.810Z,1.77
2023-04-02T14:40:39.943Z,1.63
2023-04-02T14:43:12.720Z,2.08
2023-04-02T14:45:56.308Z,2.08
2023-04-02T14:48:44.316Z,2.03
2023-04-02T14:51:18.489Z,2.13
2023-04-02T14:53:59.107Z,2.17
2023-04-02T14:56:29.895Z,2.17
2023-04-02T14:59:15.368Z,2.47
2023-04-02T15:01:48.210Z,2.45
2023-04-02T15:04:21.474Z,2.30
2023-04-02T15:06:53.676Z,2.90
2023-04-02T15:09:27.199Z,2.22
2023-04-02T15:11:59.767Z,2.53
2023-04-02T15:16:57.763Z,2.60
2023-04-02T15:19:25.763Z,3.08
2023-04-02T15:22:18.732Z,2.53
2023-04-02T15:24:57.878Z,2.45
2023-04-02T15:27:38.422Z,2.67
2023-04-02T15:30:14.722Z,2.75
2023-04-02T15:32:44.255Z,2.42
2023-04-02T15:35:25.738Z,2.50
2023-04-02T15:38:00.892Z,2.53
2023-04-02T15:40:39.378Z,3.10
2023-04-02T15:43:19.855Z,3.53
2023-04-02T15:45:59.025Z,3.35
2023-04-02T15:48:50.535Z,3.22
2023-04-02T15:51:28.760Z,3.22
2023-04-02T15:54:04.422Z,3.35
2023-04-02T15:56:41.323Z,4.13
2023-04-02T15:59:34.691Z,2.95
2023-04-02T16:02:30.063Z,3.45
2023-04-02T16:05:07.497Z,3.55
2023-04-02T16:07:58.849Z,3.78
2023-04-02T16:10:41.138Z,3.10
2023-04-02T16:13:17.702Z,3.38
2023-04-02T16:15:53.445Z,3.60
2023-04-02T16:18:31.470Z,3.90
2023-04-02T16:21:03.884Z,3.90
2023-04-02T16:23:36.264Z,4.22
2023-04-02T16:26:24.712Z,4.40
2023-04-02T16:29:03.076Z,3.97
2023-04-02T16:31:42.374Z,3.75
2023-04-02T16:34:16.237Z,4.05
2023-04-02T16:36:52.889Z,4.25
2023-04-02T16:39:33.127Z,4.22
2023-04-02T16:42:11.953Z,4.00
2023-04-02T16:44:51.239Z,4.85
2023-04-02T16:47:40.861Z,4.10
2023-04-02T16:50:17.173Z,4.00
2023-04-02T16:52:51.951Z,4.40
2023-04-02T16:55:44.704Z,4.35
2023-04-02T16:58:27.132Z,4.70
2023-04-02T17:01:01.729Z,3.88
2023-04-02T17:03:44.843Z,4.75
2023-04-02T17:06:23.746Z,4.72
2023-04-02T17:08:58.142Z,4.20
2023-04-02T17:11:34.257Z,4.50
2023-04-02T17:14:08.340Z,4.40
2023-04-02T17:16:42.972Z,4.50
2023-04-02T17:19:14.591Z,4.35
2023-04-02T17:22:02.157Z,4.13
2023-04-02T17:24:36.398Z,5.18
2023-04-02T17:27:08.951Z,4.03
2023-04-02T17:29:39.931Z,5.18
2023-04-02T17:32:16.676Z,4.55
2023-04-02T17:34:46.121Z,4.18
2023-04-02T17:37:24.551Z,3.30
2023-04-02T17:40:06.713Z,4.13
2023-04-02T17:42:48.903Z,4.57
2023-04-02T17:45:22.343Z,4.10
2023-04-02T17:48:02.817Z,4.57
2023-04-02T17:50:59.353Z,4.13
2023-04-02T17:53:39.098Z,3.78
2023-04-02T17:56:22.840Z,4.10
2023-04-02T17:59:14.634Z,3.47
2023-04-02T18:01:50.957Z,4.05
2023-04-02T18:04:32.763Z,4.50
2023-04-02T18:07:19.592Z,3.40
2023-04-02T18:09:51.679Z,3.85
2023-04-02T18:12:34.132Z,3.92
2023-04-02T18:15:28.333Z,3.08
2023-04-02T18:18:06.544Z,3.15
2023-04-02T18:20:40.527Z,3.30
2023-04-02T18:23:27.821Z,3.67
2023-04-02T18:26:00.281Z,3.42
2023-04-02T18:31:08.476Z,2.92
2023-04-02T18:33:56.081Z,2.72
2023-04-02T18:36:31.423Z,3.42
2023-04-02T18:39:07.868Z,2.92
2023-04-02T18:41:48.955Z,3.00
2023-04-02T18:44:28.636Z,3.33
2023-04-02T18:47:02.154Z,3.47
2023-04-02T18:49:36.836Z,2.88
2023-04-02T18:52:12.396Z,3.78
2023-04-02T18:54:46.102Z,3.30
2023-04-02T18:57:17.513Z,3.03
2023-04-02T18:59:49.972Z,2.85
2023-04-02T19:05:03.246Z,3.20
2023-04-02T19:07:34.121Z,2.80
2023-04-02T19:10:12.911Z,2.80
2023-04-02T19:12:40.991Z,2.47
2023-04-02T19:15:16.493Z,3.03
2023-04-02T19:17:50.596Z,2.78
2023-04-02T19:20:31.409Z,2.67
2023-04-02T19:23:13.218Z,2.72
2023-04-02T19:26:01.648Z,3.33
2023-04-02T19:28:35.174Z,2.72
2023-04-02T19:31:26.552Z,2.28
2023-04-02T19:34:09.396Z,2.95
2023-04-02T19:36:45.764Z,2.45
2023-04-02T19:39:44.246Z,2.80
2023-04-02T19:42:27.987Z,2.20
2023-04-02T19:44:59.208Z,2.85
2023-04-02T19:47:27.599Z,3.15
2023-04-02T19:50:02.480Z,3.00
2023-04-02T19:52:30.661Z,2.33
2023-04-02T19:54:58.874Z,2.70
2023-04-02T19:57:28.653Z,2.80
2023-04-02T20:00:15.325Z,2.78
2023-04-02T20:02:55.891Z,2.80
2023-04-02T20:05:39.201Z,2.63
2023-04-02T20:08:07.596Z,3.53
2023-04-02T20:10:35.834Z,2.88
2023-04-02T20:13:08.236Z,2.53
2023-04-02T20:15:39.970Z,2.47
2023-04-02T20:18:20.047Z,2.88
2023-04-02T20:21:07.429Z,3.00
2023-04-02T20:23:36.397Z,2.50
2023-04-02T20:26:11.726Z,2.30
2023-04-02T20:28:48.263Z,2.85
2023-04-02T20:31:20.200Z,2.35
2023-04-02T20:33:48.544Z,2.80
2023-04-02T20:36:27.277Z,2.72
2023-04-02T20:38:58.746Z,3.10
2023-04-02T20:41:27.565Z,2.63
2023-04-02T20:44:01.540Z,2.75
2023-04-02T20:46:54.437Z,2.65
2023-04-02T20:49:32.713Z,2.65
2023-04-02T20:52:09.050Z,2.63
2023-04-02T20:54:47.612Z,2.40
2023-04-02T20:57:16.201Z,2.35
2023-04-02T20:59:54.874Z,2.30
2023-04-02T21:02:28.325Z,2.17
2023-04-02T21:04:56.612Z,2.45
2023-04-02T21:07:32.766Z,2.20
2023-04-02T21:10:03.808Z,2.42
2023-04-02T21:12:32.312Z,2.55
2023-04-02T21:15:02.687Z,2.00
2023-04-02T21:17:33.585Z,2.03
2023-04-02T21:20:04.480Z,1.85
2023-04-02T21:22:32.812Z,2.92
2023-04-02T21:25:03.086Z,2.28
2023-04-02T21:27:31.174Z,2.35
2023-04-02T21:30:01.205Z,2.17
2023-04-02T21:32:34.792Z,2.85
2023-04-02T21:35:04.894Z,2.38
2023-04-02T21:37:34.335Z,2.60
2023-04-02T21:40:05.134Z,1.52
2023-04-02T21:42:34.533Z,1.98
2023-04-02T21:45:06.497Z,2.10
2023-04-02T21:47:40.088Z,2.00
2023-04-02T21:50:12.682Z,2.47
2023-04-02T21:55:09.893Z,2.10
2023-04-02T21:57:38.324Z,2.22
2023-04-02T22:00:12.111Z,2.30
2023-04-02T22:02:41.513Z,2.00
2023-04-02T22:05:09.811Z,2.33
2023-04-02T22:07:37.802Z,2.47
2023-04-02T22:10:06.189Z,1.60
2023-04-02T22:12:34.020Z,2.00
2023-04-02T22:15:01.991Z,2.00
2023-04-02T22:17:29.873Z,1.98
2023-04-02T22:19:59.097Z,2.00
2023-04-02T22:22:27.022Z,1.88
2023-04-02T22:24:56.202Z,2.42
2023-04-02T22:27:24.040Z,2.08
2023-04-02T22:29:51.875Z,2.15
2023-04-02T22:32:19.740Z,2.13
2023-04-02T22:34:47.629Z,1.90
2023-04-02T22:37:17.301Z,2.17
2023-04-02T22:39:45.302Z,2.22
2023-04-02T22:42:13.213Z,1.92
2023-04-02T22:44:41.298Z,2.03
2023-04-02T22:47:09.154Z,2.20
2023-04-02T22:49:36.984Z,2.20
2023-04-02T22:52:05.987Z,2.10
2023-04-02T22:54:35.301Z,1.55
2023-04-02T22:57:03.539Z,1.88
2023-04-02T22:59:31.737Z,1.70
2023-04-02T23:01:59.788Z,1.80
2023-04-02T23:04:27.891Z,2.25
2023-04-02T23:06:55.739Z,1.70
2023-04-02T23:09:23.592Z,2.17
2023-04-02T23:11:52.971Z,2.15
2023-04-02T23:14:21.321Z,1.77
2023-04-02T23:16:49.311Z,2.08
2023-04-02T23:19:17.533Z,1.90
2023-04-02T23:21:45.487Z,1.92
2023-04-02T23:24:13.622Z,1.83
2023-04-02T23:26:41.509Z,1.70
2023-04-02T23:29:12.354Z,1.80
2023-04-02T23:31:40.704Z,1.80
2023-04-02T23:34:10.330Z,1.80
2023-04-02T23:36:38.229Z,2.05
2023-04-02T23:39:09.369Z,2.10
2023-04-02T23:41:38.837Z,2.10
2023-04-02T23:44:07.536Z,1.88
2023-04-02T23:46:37.150Z,1.77
2023-04-02T23:49:05.566Z,2.00
2023-04-02T23:51:33.660Z,1.85
2023-04-02T23:54:01.735Z,2.30
2023-04-02T23:56:29.684Z,1.60
2023-04-02T23:58:57.579Z,2.10
